Time;durP1;ratioP1;P1;durP2;ratioP2;P2;SDS_P1;SDS_P2;PMS_P1;PMS_P2;Temp;Humidity;BMP_temperature;BMP_pressure;BME280_temperature;BME280_humidity;BME280_pressure;Samples;Min_cycle;Max_cycle;Signal;HPM_P1;HPM_P2
2022/08/30 00:01:05;;;;;;;10.55;5.72;;;;;;;26.22;59.70;100920.88;4861322;29;20052;-66
2022/08/30 00:03:53;;;;;;;7.63;4.43;;;;;;;26.16;60.36;100919.72;4861513;29;20049;-66
2022/08/30 00:06:38;;;;;;;5.22;3.50;;;;;;;26.30;59.99;100916.00;4860199;29;20056;-66
2022/08/30 00:09:23;;;;;;;5.95;3.33;;;;;;;26.36;60.15;100917.91;4860895;29;20413;-66
2022/08/30 00:12:08;;;;;;;8.05;4.68;;;;;;;26.40;59.99;100912.28;4854061;29;20058;-66
2022/08/30 00:14:53;;;;;;;6.07;4.72;;;;;;;26.34;60.22;100913.97;4861189;29;20052;-66
2022/08/30 00:17:39;;;;;;;6.95;4.60;;;;;;;26.38;59.74;100909.91;4860466;29;20053;-65
2022/08/30 00:20:28;;;;;;;9.30;5.65;;;;;;;26.34;59.75;100911.16;4861045;29;20052;-65
2022/08/30 00:23:13;;;;;;;7.13;5.60;;;;;;;26.10;60.38;100915.03;4860644;29;20076;-66
2022/08/30 00:25:58;;;;;;;9.98;6.45;;;;;;;25.97;60.91;100907.19;4842531;29;20120;-66
2022/08/30 00:28:43;;;;;;;10.52;6.47;;;;;;;25.85;61.62;100910.50;4841915;29;20053;-65
2022/08/30 00:31:29;;;;;;;10.35;5.90;;;;;;;25.84;61.71;100902.59;4842231;29;20057;-66
2022/08/30 00:34:15;;;;;;;5.88;4.28;;;;;;;25.95;61.50;100904.06;4854062;29;20056;-65
2022/08/30 00:37:01;;;;;;;11.52;6.68;;;;;;;26.00;61.56;100894.44;4879025;29;20052;-66
2022/08/30 00:39:46;;;;;;;10.73;6.25;;;;;;;26.10;61.19;100892.72;4879018;29;20060;-65
2022/08/30 00:42:32;;;;;;;7.53;4.57;;;;;;;26.12;60.82;100885.50;4879315;29;20060;-66
2022/08/30 00:45:22;;;;;;;8.57;5.70;;;;;;;26.20;60.52;100889.81;4866994;29;20501;-65
2022/08/30 00:48:07;;;;;;;8.77;4.82;;;;;;;26.17;60.97;100893.41;4860080;29;20528;-65
2022/08/30 00:50:57;;;;;;;5.57;4.70;;;;;;;26.24;60.91;100898.94;4860288;29;20055;-66
2022/08/30 00:53:47;;;;;;;5.40;4.25;;;;;;;26.32;60.50;100892.06;4863417;29;20052;-65
2022/08/30 06:51:22;;;;;;;2.78;1.83;;;;;;;26.12;60.97;100971.94;4824713;29;20069;-61
2022/08/30 06:54:09;;;;;;;2.63;2.05;;;;;;;26.18;60.40;100983.44;4807782;29;20423;-61
2022/08/30 06:56:53;;;;;;;3.42;1.77;;;;;;;26.21;60.47;100986.16;4818051;29;20049;-63
2022/08/30 06:59:39;;;;;;;2.72;1.60;;;;;;;26.25;60.29;100983.38;4816398;29;20057;-62
2022/08/30 07:02:24;;;;;;;2.25;1.95;;;;;;;26.30;59.86;100978.16;4822059;29;20073;-63
2022/08/30 07:05:10;;;;;;;2.35;2.00;;;;;;;26.34;59.68;100984.47;4825305;29;20065;-61
2022/08/30 07:07:55;;;;;;;7.40;2.13;;;;;;;26.39;59.50;100977.63;4823313;29;20041;-62
2022/08/30 07:10:40;;;;;;;3.47;1.85;;;;;;;26.44;59.24;100979.97;4821103;29;20069;-61
2022/08/30 07:13:27;;;;;;;2.53;1.70;;;;;;;26.46;58.94;100977.56;4821855;29;20053;-62
2022/08/30 07:16:13;;;;;;;2.85;1.90;;;;;;;26.53;58.72;100979.47;4822287;29;20065;-63
2022/08/30 07:18:59;;;;;;;7.63;1.85;;;;;;;26.55;58.84;100975.06;4825327;29;20053;-62
2022/08/30 07:21:44;;;;;;;1.80;1.50;;;;;;;26.59;58.71;100983.38;4821585;29;20062;-62
2022/08/30 07:24:28;;;;;;;4.70;1.88;;;;;;;26.62;58.50;100979.72;4816949;29;20073;-62
2022/08/30 07:27:14;;;;;;;6.45;1.80;;;;;;;26.66;58.44;100977.72;4813751;29;20455;-60
2022/08/30 07:29:59;;;;;;;2.53;1.35;;;;;;;26.71;57.85;100983.63;4819399;29;20045;-62
2022/08/30 07:32:44;;;;;;;2.67;1.67;;;;;;;26.75;58.00;100989.94;4819633;29;20073;-64
2022/08/30 07:35:30;;;;;;;5.72;1.85;;;;;;;26.78;57.60;100991.88;4821170;29;20050;-63
2022/08/30 07:38:15;;;;;;;4.00;1.90;;;;;;;26.84;57.83;100981.03;4815415;29;20273;-62
2022/08/30 07:41:00;;;;;;;3.65;1.55;;;;;;;26.86;57.69;100978.63;4823546;29;20054;-62
2022/08/30 07:43:46;;;;;;;3.08;2.00;;;;;;;26.90;57.22;100984.97;4815697;29;20518;-63
2022/08/30 07:46:31;;;;;;;4.13;1.60;;;;;;;26.92;57.45;100985.31;4813212;29;20522;-63
2022/08/30 07:49:16;;;;;;;2.60;1.45;;;;;;;26.95;57.15;100987.28;4821235;29;20058;-62
2022/08/30 07:52:02;;;;;;;2.67;1.80;;;;;;;27.01;56.63;100987.63;4820953;29;20529;-63
2022/08/30 07:54:47;;;;;;;2.25;1.75;;;;;;;27.06;56.69;100992.72;4822448;29;20262;-63
2022/08/30 07:57:33;;;;;;;3.42;2.05;;;;;;;27.10;56.49;100999.03;4816975;29;20053;-62
2022/08/30 08:00:18;;;;;;;4.50;2.38;;;;;;;27.12;56.11;100997.41;4823937;29;20054;-62
2022/08/30 08:03:06;;;;;;;2.92;1.75;;;;;;;27.18;55.44;100997.72;4822296;29;20058;-63
2022/08/30 08:05:52;;;;;;;2.38;1.90;;;;;;;27.20;55.87;100992.50;4824023;29;20057;-62
2022/08/30 08:08:37;;;;;;;1.90;1.15;;;;;;;27.22;56.37;100995.69;4829413;29;20521;-62
2022/08/30 08:11:25;;;;;;;2.35;1.50;;;;;;;27.27;56.21;100995.22;4826972;29;20053;-60
2022/08/30 08:14:10;;;;;;;2.05;1.85;;;;;;;27.29;55.97;101000.34;4825224;29;20435;-62
2022/08/30 08:16:55;;;;;;;2.60;1.50;;;;;;;27.32;55.28;101003.09;4824157;29;20415;-62
2022/08/30 08:19:40;;;;;;;3.38;1.88;;;;;;;27.35;55.53;101005.03;4824385;29;20065;-62
2022/08/30 08:22:25;;;;;;;5.13;1.63;;;;;;;27.38;54.99;100993.00;4825387;29;20061;-62
2022/08/30 08:25:10;;;;;;;5.18;1.95;;;;;;;27.40;54.86;100998.97;4840155;29;20062;-62
2022/08/30 08:27:55;;;;;;;2.03;1.42;;;;;;;27.44;55.05;100996.13;4822450;29;20054;-63
2022/08/30 08:30:40;;;;;;;3.90;1.70;;;;;;;27.46;54.70;101000.09;4823976;29;20061;-62
2022/08/30 08:33:25;;;;;;;4.05;1.80;;;;;;;27.48;54.33;100983.66;4819428;29;20419;-62
2022/08/30 08:36:10;;;;;;;5.60;1.50;;;;;;;27.56;54.23;100992.78;4824428;29;20338;-62
2022/08/30 08:38:55;;;;;;;3.75;1.40;;;;;;;27.56;54.50;100985.19;4824819;29;20053;-62
2022/08/30 08:41:57;;;;;;;2.25;1.58;;;;;;;27.59;54.49;100987.09;4829067;29;20065;-62
2022/08/30 08:45:01;;;;;;;5.70;1.80;;;;;;;27.63;54.23;100987.06;4826358;29;20054;-62
2022/08/30 08:47:46;;;;;;;;;;;;;;;27.64;54.58;100983.03;4823687;29;20562;-60
2022/08/30 08:50:31;;;;;;;3.25;1.75;;;;;;;27.62;54.24;100986.28;4827769;29;19921;-62
2022/08/30 08:53:34;;;;;;;5.15;1.60;;;;;;;27.70;54.27;100986.94;4825768;29;20418;-63
2022/08/30 08:56:21;;;;;;;4.43;2.13;;;;;;;27.72;54.53;100995.69;4817820;29;20054;-62
2022/08/30 08:59:10;;;;;;;16.42;1.67;;;;;;;27.76;54.08;100995.63;4822423;29;20045;-62
2022/08/30 09:02:01;;;;;;;6.18;1.63;;;;;;;27.78;54.09;100993.19;4824749;29;20062;-63
2022/08/30 09:04:47;;;;;;;4.70;1.85;;;;;;;27.82;53.55;100999.50;4828048;29;20050;-62
2022/08/30 09:07:38;;;;;;;6.43;1.80;;;;;;;27.84;53.19;100995.06;4825392;29;20070;-61
2022/08/30 09:10:24;;;;;;;3.67;2.22;;;;;;;27.88;53.32;101003.41;4823310;29;20057;-62
2022/08/30 09:13:09;;;;;;;3.05;1.50;;;;;;;27.92;53.10;101002.13;4827684;29;20065;-62
2022/08/30 09:15:56;;;;;;;7.88;2.17;;;;;;;27.96;53.26;101004.84;4823161;29;20050;-63
2022/08/30 09:18:45;;;;;;;2.28;1.33;;;;;;;28.02;52.52;101005.94;4822477;29;20113;-62
2022/08/30 09:21:29;;;;;;;3.45;1.40;;;;;;;27.99;52.48;101003.97;4827660;29;20140;-62
2022/08/30 09:24:14;;;;;;;1.98;1.65;;;;;;;28.02;52.21;101006.72;4821029;29;20061;-62
2022/08/30 09:27:15;;;;;;;2.72;1.60;;;;;;;28.07;52.26;101008.25;4819700;29;20049;-60
2022/08/30 09:30:06;;;;;;;4.70;1.58;;;;;;;28.08;51.88;101007.03;4820752;29;20072;-61
2022/08/30 09:32:59;;;;;;;2.22;1.40;;;;;;;28.13;52.68;101008.56;4819800;29;20066;-62
2022/08/30 09:35:47;;;;;;;7.13;1.52;;;;;;;28.11;52.72;101008.97;4828020;29;20072;-62
2022/08/30 09:38:33;;;;;;;3.40;1.65;;;;;;;28.11;52.67;101008.16;4824823;29;20041;-62
2022/08/30 09:41:43;;;;;;;1.83;1.30;;;;;;;28.14;52.42;100998.97;4824586;29;20057;-62
2022/08/30 09:44:36;;;;;;;2.72;1.50;;;;;;;28.11;52.81;101000.56;4827327;29;20049;-62
2022/08/30 09:47:28;;;;;;;7.18;1.70;;;;;;;28.09;52.79;100998.19;4817665;29;20046;-62
2022/08/30 09:50:19;;;;;;;2.63;1.60;;;;;;;28.08;52.17;100995.84;4823576;29;20050;-63
2022/08/30 09:53:17;;;;;;;8.95;2.22;;;;;;;28.13;51.53;101002.97;4823002;29;20057;-63
2022/08/30 09:56:09;;;;;;;4.35;1.77;;;;;;;28.15;52.32;101012.50;4824369;29;20053;-63
2022/08/30 09:59:07;;;;;;;3.95;1.77;;;;;;;28.16;52.30;101008.50;4823266;29;20065;-62
2022/08/30 10:02:00;;;;;;;4.30;1.60;;;;;;;28.15;52.06;101015.28;4822918;29;20041;-62
2022/08/30 10:04:54;;;;;;;4.10;1.70;;;;;;;28.17;51.99;101007.28;4823012;29;20065;-62
2022/08/30 10:08:21;;;;;;;1.90;1.58;;;;;;;28.20;51.81;101006.41;4821913;29;20041;-64
2022/08/30 10:11:35;;;;;;;4.80;1.50;;;;;;;28.23;52.03;101013.16;4822841;29;20061;-62
2022/08/30 10:14:35;;;;;;;4.82;1.98;;;;;;;28.22;51.92;101006.00;4822718;29;20518;-62
2022/08/30 10:17:23;;;;;;;4.63;1.50;;;;;;;28.24;52.12;101009.16;4820197;29;20617;-62
2022/08/30 10:20:17;;;;;;;2.78;1.95;;;;;;;28.30;51.88;101002.63;4817289;29;20716;-61
2022/08/30 10:23:12;;;;;;;2.55;1.63;;;;;;;28.33;51.85;100998.97;4821867;29;20427;-61
2022/08/30 10:26:14;;;;;;;2.00;1.67;;;;;;;28.37;51.97;101007.28;4821958;29;20057;-62
2022/08/30 10:29:08;;;;;;;2.65;1.42;;;;;;;28.36;52.28;101000.09;4821022;29;20053;-61
2022/08/30 10:32:12;;;;;;;;;;;;;;;28.35;51.81;100996.53;4822210;29;20537;-62
2022/08/30 10:35:14;;;;;;;3.90;1.40;;;;;;;28.40;51.66;100996.03;4822474;29;19917;-62
2022/08/30 10:38:24;;;;;;;2.35;1.63;;;;;;;28.37;51.83;100996.88;4821915;29;20582;-61
2022/08/30 10:41:27;;;;;;;4.88;1.83;;;;;;;28.43;51.25;100999.97;4822801;29;20049;-62
2022/08/30 10:44:29;;;;;;;4.35;1.50;;;;;;;28.44;51.50;100985.53;4833346;29;20061;-62
2022/08/30 10:47:40;;;;;;;1.75;1.65;;;;;;;28.46;50.75;100985.91;4821238;29;20054;-60
2022/08/30 10:50:31;;;;;;;5.00;2.00;;;;;;;28.53;51.38;100992.59;4821709;29;20473;-62
2022/08/30 10:53:40;;;;;;;1.98;1.58;;;;;;;28.50;50.86;100994.22;4824903;29;20045;-61
2022/08/30 10:56:28;;;;;;;8.43;1.60;;;;;;;28.50;51.43;100989.41;4821798;29;20045;-61
2022/08/30 10:59:16;;;;;;;2.90;1.95;;;;;;;28.54;50.91;100982.97;4837740;29;20065;-59
2022/08/30 11:02:18;;;;;;;3.10;1.80;;;;;;;28.58;51.02;100978.88;4822528;29;20058;-62
2022/08/30 11:05:21;;;;;;;2.83;2.00;;;;;;;37.15;31.43;100982.13;4821678;29;20108;-61
2022/08/30 11:08:29;;;;;;;9.70;2.05;;;;;;;37.63;29.71;100979.75;4826316;29;20065;-63
2022/08/30 11:11:39;;;;;;;5.63;1.83;;;;;;;36.24;31.39;100973.84;4763359;30;20067;-70
2022/08/30 11:14:25;;;;;;;4.15;2.33;;;;;;;33.84;34.21;100965.22;4768452;30;20055;-69
2022/08/30 11:17:25;;;;;;;6.38;2.20;;;;;;;35.76;31.10;100967.50;4768456;30;20083;-70
2022/08/30 11:20:35;;;;;;;2.40;1.73;;;;;;;37.62;28.55;100968.88;4750623;30;20063;-69
2022/08/30 11:23:33;;;;;;;2.55;1.80;;;;;;;37.84;27.94;100966.31;4750463;30;20056;-70
2022/08/30 11:26:53;;;;;;;6.28;2.10;;;;;;;35.05;31.75;100951.97;4750610;30;20055;-68
2022/08/30 11:29:42;;;;;;;3.40;1.83;;;;;;;34.84;32.23;100955.09;4747892;30;20057;-68
2022/08/30 11:32:58;;;;;;;3.10;1.73;;;;;;;33.02;33.68;100944.47;4750437;30;20321;-68
2022/08/30 11:35:51;;;;;;;5.43;2.03;;;;;;;34.61;32.35;100931.88;4750444;30;20051;-68
2022/08/30 11:38:36;;;;;;;3.75;2.25;;;;;;;35.76;30.20;100942.75;4752942;30;20043;-68
2022/08/30 11:41:35;;;;;;;11.02;2.13;;;;;;;36.84;29.43;100931.63;4753783;30;20454;-69
2022/08/30 11:44:20;;;;;;;3.78;1.73;;;;;;;36.79;28.74;100923.03;4771039;29;20055;-68
2022/08/30 11:47:39;;;;;;;2.38;1.98;;;;;;;36.39;29.14;100918.75;4752005;30;20051;-68
2022/08/30 11:50:56;;;;;;;2.63;2.08;;;;;;;36.07;30.07;100914.03;4759319;30;20055;-67
2022/08/30 11:53:48;;;;;;;4.30;1.75;;;;;;;35.26;31.68;100909.78;4748243;30;20064;-67
2022/08/30 11:57:00;;;;;;;5.78;2.13;;;;;;;35.10;31.38;100908.91;4761538;30;20058;-67
2022/08/30 12:00:07;;;;;;;13.30;3.15;;;;;;;36.29;29.44;100894.63;4770692;30;20416;-68
2022/08/30 12:03:02;;;;;;;8.57;2.13;;;;;;;38.80;27.02;100911.97;4769326;30;20054;-67
2022/08/30 12:05:55;;;;;;;5.95;2.03;;;;;;;38.69;25.88;100906.19;4760183;30;20069;-68
2022/08/30 12:08:44;;;;;;;3.53;1.90;;;;;;;39.77;24.56;100913.53;4760189;30;20055;-67
2022/08/30 12:11:32;;;;;;;6.32;2.05;;;;;;;37.31;27.68;100895.69;4749410;30;20063;-69
2022/08/30 12:14:47;;;;;;;7.50;2.03;;;;;;;40.01;23.86;100902.44;4752835;30;20059;-70
2022/08/30 12:21:03;;;;;;;7.32;2.33;;;;;;;38.93;26.17;100890.34;4769522;30;20058;-70
2022/08/30 12:24:03;;;;;;;3.75;1.80;;;;;;;39.32;25.79;100890.56;4775788;29;20059;-70
2022/08/30 12:26:50;;;;;;;2.67;1.75;;;;;;;39.67;24.62;100895.84;4752446;30;20059;-69
2022/08/30 12:29:35;;;;;;;3.25;1.88;;;;;;;40.86;23.98;100884.06;4751998;30;20055;-69
2022/08/30 12:32:21;;;;;;;4.22;1.75;;;;;;;36.90;28.05;100877.03;4752321;30;20047;-70
2022/08/30 12:35:06;;;;;;;4.70;1.92;;;;;;;36.38;29.02;100871.84;4758466;30;20512;-70
2022/08/30 12:38:04;;;;;;;2.40;1.80;;;;;;;37.55;27.14;100872.78;4757872;30;20402;-68
2022/08/30 12:40:58;;;;;;;3.88;1.85;;;;;;;40.79;23.33;100873.94;4752040;30;20535;-70
2022/08/30 12:43:50;;;;;;;5.07;1.88;;;;;;;39.47;25.07;100870.44;4753296;30;20617;-70
2022/08/30 12:46:35;;;;;;;3.67;1.88;;;;;;;38.04;26.78;100869.72;4769979;30;20059;-68
2022/08/30 12:49:23;;;;;;;6.03;1.90;;;;;;;39.06;26.05;100872.84;4751613;30;20051;-70
2022/08/30 12:52:30;;;;;;;6.90;2.33;;;;;;;37.97;27.24;100872.97;4748677;30;20413;-70
2022/08/30 12:55:20;;;;;;;1.70;1.60;;;;;;;39.66;25.09;100880.09;4767869;30;20078;-69
2022/08/30 12:58:10;;;;;;;4.20;1.80;;;;;;;38.31;26.40;100873.31;4738964;30;20582;-70
2022/08/30 13:01:30;;;;;;;7.57;2.30;;;;;;;36.23;30.25;100859.75;4742105;30;20076;-70
2022/08/30 13:04:18;;;;;;;8.82;2.38;;;;;;;40.44;24.34;100865.16;4751121;30;20055;-70
2022/08/30 13:07:03;;;;;;;8.20;2.28;;;;;;;40.81;23.74;100847.75;4749912;30;20519;-70
2022/08/30 13:09:48;;;;;;;3.65;2.08;;;;;;;38.89;25.44;100861.38;4753320;30;20067;-68
2022/08/30 13:12:34;;;;;;;4.97;2.30;;;;;;;37.55;27.88;100844.41;4759292;30;20067;-69
2022/08/30 13:15:28;;;;;;;8.85;2.63;;;;;;;37.93;27.69;100846.88;4751377;30;20075;-70
2022/08/30 13:18:17;;;;;;;;;;;;;;;39.55;25.34;100848.72;4752338;30;20523;-70
2022/08/30 13:21:33;;;;;;;5.72;2.03;;;;;;;38.26;26.60;100839.94;4754273;30;19918;-69
2022/08/30 13:24:18;;;;;;;6.95;2.25;;;;;;;39.42;24.81;100848.41;4750772;30;20201;-70
2022/08/30 13:27:10;;;;;;;88.85;17.60;;;;;;;37.64;27.61;100835.75;4750342;30;20059;-69
2022/08/30 13:29:56;;;;;;;296.35;51.85;;;;;;;39.46;25.79;100834.72;4751163;30;20044;-69
2022/08/30 13:32:41;;;;;;;55.35;13.13;;;;;;;40.85;23.63;100831.91;4753134;30;20040;-69
2022/08/30 13:35:28;;;;;;;10.43;3.53;;;;;;;36.50;30.19;100829.53;4751666;30;20048;-68
2022/08/30 13:38:13;;;;;;;16.45;3.83;;;;;;;34.86;32.82;100822.53;4761346;30;20059;-69
2022/08/30 13:40:58;;;;;;;7.25;2.20;;;;;;;32.95;35.31;100821.59;4752381;30;20059;-68
2022/08/30 13:43:44;;;;;;;5.90;2.30;;;;;;;32.97;35.95;100799.34;4768349;30;20051;-69
2022/08/30 13:46:29;;;;;;;4.28;2.72;;;;;;;32.78;36.35;100797.75;4768699;30;20063;-69
2022/08/30 13:49:20;;;;;;;2.63;2.10;;;;;;;33.41;36.33;100799.88;4768394;30;20401;-69
2022/08/30 13:52:07;;;;;;;5.53;2.10;;;;;;;34.16;34.28;100796.44;4768847;30;20051;-69
2022/08/30 13:54:55;;;;;;;8.80;2.53;;;;;;;33.84;35.00;100784.63;4768844;30;20058;-69
2022/08/30 13:57:39;;;;;;;3.58;2.53;;;;;;;33.69;34.44;100785.75;4764735;30;20051;-67
2022/08/30 14:00:25;;;;;;;9.10;2.60;;;;;;;33.69;35.71;100769.63;4750479;30;20437;-69
2022/08/30 14:03:11;;;;;;;4.32;2.60;;;;;;;34.00;34.51;100768.59;4751303;30;20129;-69
2022/08/30 14:05:58;;;;;;;5.22;2.88;;;;;;;35.17;32.50;100755.06;4768137;30;20055;-69
2022/08/30 14:08:43;;;;;;;9.35;3.05;;;;;;;34.43;33.51;100751.19;4750555;30;20055;-67
2022/08/30 14:11:28;;;;;;;9.13;2.35;;;;;;;33.69;34.89;100744.22;4750815;30;20063;-68
2022/08/30 14:14:13;;;;;;;26.92;3.50;;;;;;;33.85;34.84;100735.41;4763853;30;20055;-68
2022/08/30 14:16:58;;;;;;;3.40;2.25;;;;;;;34.04;34.22;100736.09;4750676;30;20417;-68
2022/08/30 14:19:42;;;;;;;5.70;2.38;;;;;;;33.97;34.85;100735.69;4750480;30;20051;-69
2022/08/30 14:22:28;;;;;;;5.85;3.95;;;;;;;33.33;35.91;100730.16;4750667;30;20416;-69
2022/08/30 14:25:13;;;;;;;5.43;3.03;;;;;;;32.79;37.70;100731.72;4750674;30;20059;-69
2022/08/30 14:27:57;;;;;;;288.02;15.65;;;;;;;32.55;38.38;100731.50;4750312;30;20533;-69
2022/08/30 14:30:42;;;;;;;10.50;2.97;;;;;;;31.65;39.78;100724.22;4755389;30;20048;-69
2022/08/30 14:33:27;;;;;;;4.78;2.63;;;;;;;30.65;42.10;100714.16;4750558;30;20421;-69
2022/08/30 14:36:13;;;;;;;6.78;2.67;;;;;;;31.15;40.69;100711.19;4750434;30;20055;-69
2022/08/30 14:38:57;;;;;;;9.55;2.50;;;;;;;30.62;42.91;100712.28;4750526;30;20055;-69
2022/08/30 14:41:49;;;;;;;6.32;2.80;;;;;;;30.63;43.08;100714.59;4750563;30;20055;-68
2022/08/30 14:44:36;;;;;;;7.13;3.28;;;;;;;30.53;43.08;100699.69;4750443;30;20070;-67
2022/08/30 14:47:21;;;;;;;6.97;3.47;;;;;;;30.09;45.32;100706.34;4750594;30;20066;-69
2022/08/30 14:50:07;;;;;;;6.57;3.25;;;;;;;30.05;45.20;100702.88;4752224;30;20609;-68
2022/08/30 14:52:52;;;;;;;10.23;3.22;;;;;;;30.62;44.41;100704.63;4753358;30;20055;-68
2022/08/30 14:55:36;;;;;;;9.30;3.40;;;;;;;30.72;43.47;100688.66;4766787;30;20064;-68
2022/08/30 14:58:21;;;;;;;4.38;3.67;;;;;;;30.94;43.29;100695.84;4767906;30;20440;-68
2022/08/30 15:01:08;;;;;;;6.00;3.78;;;;;;;30.14;46.10;100686.94;4758546;30;20059;-68
2022/08/30 15:03:54;;;;;;;4.35;3.25;;;;;;;30.79;45.43;100686.38;4748935;30;20071;-69
2022/08/30 15:06:42;;;;;;;9.73;4.00;;;;;;;31.20;43.63;100684.53;4749718;30;20059;-69
2022/08/30 15:09:27;;;;;;;6.43;3.50;;;;;;;31.35;43.63;100675.13;4749811;30;20711;-69
2022/08/30 15:12:12;;;;;;;5.65;4.18;;;;;;;30.68;43.82;100673.97;4750812;30;20059;-69
2022/08/30 15:14:57;;;;;;;6.55;3.33;;;;;;;30.95;43.68;100677.78;4764177;30;20047;-69
2022/08/30 15:17:43;;;;;;;8.75;3.15;;;;;;;31.04;43.74;100677.09;4756053;30;20059;-68
2022/08/30 15:20:29;;;;;;;5.10;3.70;;;;;;;30.58;43.63;100667.44;4753197;30;20520;-69
2022/08/30 15:23:15;;;;;;;11.00;3.35;;;;;;;30.86;43.46;100671.31;4753122;30;20055;-68
2022/08/30 15:26:00;;;;;;;10.68;3.63;;;;;;;30.85;43.93;100676.13;4742493;30;20064;-69
2022/08/30 15:28:45;;;;;;;6.40;2.85;;;;;;;30.79;44.17;100666.72;4753239;30;20512;-68
2022/08/30 15:31:30;;;;;;;5.55;3.03;;;;;;;30.97;43.99;100666.88;4752414;30;20523;-69
2022/08/30 15:34:17;;;;;;;6.75;3.00;;;;;;;31.33;43.60;100674.81;4741731;30;20074;-68
2022/08/30 15:37:03;;;;;;;4.70;3.13;;;;;;;30.57;44.51;100677.13;4752407;30;20055;-68
2022/08/30 15:39:48;;;;;;;5.38;3.63;;;;;;;30.44;44.87;100679.94;4764173;30;20055;-67
2022/08/30 15:42:33;;;;;;;4.65;3.85;;;;;;;30.67;44.88;100686.44;4748946;30;20059;-69
2022/08/30 15:45:18;;;;;;;11.93;3.53;;;;;;;29.86;46.59;100690.63;4742229;30;20440;-68
2022/08/30 15:48:03;;;;;;;11.18;3.65;;;;;;;29.45;48.72;100690.69;4742089;30;20059;-68
2022/08/30 15:50:57;;;;;;;4.97;3.75;;;;;;;29.20;48.69;100688.56;4746583;30;20142;-67
2022/08/30 15:53:44;;;;;;;5.07;3.47;;;;;;;28.90;49.49;100696.16;4746546;30;20425;-69
2022/08/30 15:56:30;;;;;;;8.05;4.80;;;;;;;29.01;49.74;100698.69;4754846;30;20059;-68
2022/08/30 15:59:16;;;;;;;8.52;3.92;;;;;;;29.02;50.11;100705.06;4754393;30;20051;-68
2022/08/30 16:02:00;;;;;;;8.25;4.63;;;;;;;28.86;50.11;100705.91;4760136;30;20059;-67
2022/08/30 16:04:45;;;;;;;7.13;4.55;;;;;;;28.82;50.90;100708.78;4751702;30;20074;-68
2022/08/30 16:07:30;;;;;;;6.72;3.60;;;;;;;29.00;51.17;100713.16;4751095;30;20631;-68
2022/08/30 16:10:16;;;;;;;7.22;3.83;;;;;;;28.84;51.72;100700.75;4737393;30;20051;-68
2022/08/30 16:13:00;;;;;;;6.57;4.00;;;;;;;28.89;51.49;100688.22;4752892;30;20070;-67
2022/08/30 16:15:46;;;;;;;13.80;4.90;;;;;;;29.14;51.58;100690.34;4734716;30;20060;-68
2022/08/30 16:18:31;;;;;;;5.80;4.00;;;;;;;29.40;51.62;100680.81;4741225;30;20047;-66
2022/08/30 16:21:20;;;;;;;5.07;4.15;;;;;;;29.40;50.22;100678.00;4752321;30;20055;-69
2022/08/30 16:24:09;;;;;;;12.05;4.13;;;;;;;29.20;51.55;100683.75;4741479;30;20059;-68
2022/08/30 16:26:58;;;;;;;7.03;4.35;;;;;;;28.93;52.06;100680.50;4773445;29;20600;-68
2022/08/30 16:29:43;;;;;;;15.32;4.40;;;;;;;29.04;50.56;100686.63;4751080;30;20063;-68
2022/08/30 16:32:28;;;;;;;8.05;5.07;;;;;;;29.02;51.83;100677.84;4752507;30;20072;-69
2022/08/30 16:35:14;;;;;;;4.75;3.90;;;;;;;28.76;51.84;100676.97;4743763;30;20063;-69
2022/08/30 16:37:59;;;;;;;8.73;4.28;;;;;;;28.82;51.90;100666.00;4752368;30;20059;-68
2022/08/30 16:40:45;;;;;;;17.55;5.07;;;;;;;28.68;52.64;100672.75;4768731;30;20055;-69
2022/08/30 16:43:30;;;;;;;14.63;5.57;;;;;;;28.46;52.97;100666.94;4758491;30;20527;-69
2022/08/30 16:46:17;;;;;;;10.82;5.20;;;;;;;28.51;52.46;100660.00;4757982;30;20075;-68
2022/08/30 16:49:04;;;;;;;7.88;4.07;;;;;;;28.55;52.49;100665.53;4751406;30;20059;-68
2022/08/30 16:51:50;;;;;;;9.23;4.72;;;;;;;28.52;52.06;100658.78;4754471;30;20055;-68
2022/08/30 16:54:34;;;;;;;11.07;5.15;;;;;;;28.58;51.92;100651.44;4752567;30;20070;-69
2022/08/30 16:57:19;;;;;;;12.25;5.45;;;;;;;28.71;51.69;100641.06;4746812;30;20512;-68
2022/08/30 17:00:07;;;;;;;9.85;4.93;;;;;;;28.77;51.57;100638.56;4742889;30;20051;-69
2022/08/30 17:02:53;;;;;;;12.07;4.30;;;;;;;29.03;52.45;100634.63;4751258;30;20420;-68
2022/08/30 17:05:40;;;;;;;8.25;3.90;;;;;;;29.03;52.53;100636.63;4759153;30;20055;-68
2022/08/30 17:08:25;;;;;;;11.52;5.05;;;;;;;28.65;53.13;100631.63;4746406;30;20054;-68
2022/08/30 17:11:13;;;;;;;7.38;4.60;;;;;;;28.21;54.83;100632.41;4867508;23;20059;-84
2022/08/30 17:13:57;;;;;;;10.90;5.05;;;;;;;27.77;55.79;100617.88;4884483;29;20439;-84
2022/08/30 17:16:42;;;;;;;12.80;5.22;;;;;;;27.86;55.70;100611.66;4893432;29;20060;-82
2022/08/30 17:19:27;;;;;;;12.05;4.93;;;;;;;27.91;55.13;100616.75;4895829;29;20047;-88
2022/08/30 17:22:13;;;;;;;16.80;5.03;;;;;;;27.87;54.91;100625.22;4893771;29;20056;-86
2022/08/30 17:24:58;;;;;;;11.27;4.95;;;;;;;27.42;56.39;100630.63;4890946;29;20071;-84
2022/08/30 17:27:43;;;;;;;12.93;6.30;;;;;;;27.15;57.57;100641.94;4876458;29;20100;-83
2022/08/30 17:30:28;;;;;;;11.40;7.03;;;;;;;26.86;59.08;100643.72;4870791;29;20056;-83
2022/08/30 17:33:16;;;;;;;17.55;6.32;;;;;;;26.36;61.12;100655.75;4880762;29;20064;-85
2022/08/30 17:36:02;;;;;;;189.73;38.13;;;;;;;26.56;60.73;100674.56;4885029;29;20055;-84
2022/08/30 17:38:47;;;;;;;89.57;21.33;;;;;;;26.93;59.61;100681.88;4878809;29;20037;-83
2022/08/30 17:41:33;;;;;;;47.00;14.60;;;;;;;27.37;57.59;100697.38;4882792;29;20143;-85
2022/08/30 17:44:27;;;;;;;35.50;9.95;;;;;;;27.61;56.54;100693.28;4881495;29;20041;-83
2022/08/30 17:47:12;;;;;;;76.28;17.05;;;;;;;27.76;55.93;100680.59;4878088;29;20048;-85
2022/08/30 17:49:56;;;;;;;45.33;13.15;;;;;;;27.93;55.49;100671.00;4877637;29;20037;-84
2022/08/30 17:52:42;;;;;;;42.95;12.82;;;;;;;28.05;54.87;100689.09;4884400;29;20048;-85
2022/08/30 17:55:28;;;;;;;28.55;9.38;;;;;;;28.09;54.99;100693.38;4888389;29;20041;-85
2022/08/30 17:58:12;;;;;;;27.88;8.50;;;;;;;28.10;55.04;100702.56;4885197;29;20044;-85
2022/08/30 18:01:10;;;;;;;32.40;8.52;;;;;;;28.17;54.49;100691.25;4876265;29;20043;-87
2022/08/30 18:03:55;;;;;;;19.60;7.53;;;;;;;28.21;54.34;100691.16;4880417;29;20067;-86
2022/08/30 18:06:40;;;;;;;18.33;8.38;;;;;;;28.17;54.64;100696.03;4879682;29;20048;-86
2022/08/30 18:09:25;;;;;;;39.42;10.55;;;;;;;28.21;54.60;100699.53;4880917;29;20056;-86
2022/08/30 18:12:10;;;;;;;15.98;7.50;;;;;;;28.20;54.58;100698.75;4884625;29;20407;-86
2022/08/30 18:14:55;;;;;;;20.73;7.50;;;;;;;28.16;54.56;100716.84;4911250;29;20051;-87
2022/08/30 18:17:41;;;;;;;17.77;7.32;;;;;;;28.16;55.00;100717.63;4879506;29;20074;-86
2022/08/30 18:20:26;;;;;;;14.98;6.57;;;;;;;28.16;54.59;100722.44;4885446;29;20056;-87
2022/08/30 18:23:11;;;;;;;13.90;5.90;;;;;;;28.11;54.95;100728.50;4884141;29;20438;-86
2022/08/30 18:25:59;;;;;;;18.45;6.00;;;;;;;28.06;54.55;100719.44;4883655;29;20052;-86
2022/08/30 18:28:44;;;;;;;13.38;6.07;;;;;;;28.06;54.97;100729.81;4877682;29;20052;-87
2022/08/30 18:31:29;;;;;;;11.63;5.75;;;;;;;28.08;54.54;100739.34;4892619;29;20090;-86
2022/08/30 18:34:14;;;;;;;13.38;6.28;;;;;;;28.01;54.96;100747.91;4893249;29;20056;-86
2022/08/30 18:37:00;;;;;;;12.48;6.18;;;;;;;27.99;54.98;100753.13;4889902;29;20051;-86
2022/08/30 18:39:47;;;;;;;12.63;7.32;;;;;;;27.93;54.88;100754.88;4879807;29;20056;-87
2022/08/30 18:42:32;;;;;;;14.07;6.75;;;;;;;27.91;55.39;100757.31;4884184;29;20072;-86
2022/08/30 18:45:21;;;;;;;11.30;6.82;;;;;;;27.87;55.19;100751.00;4879371;29;20052;-86
2022/08/30 18:48:06;;;;;;;9.88;6.57;;;;;;;27.84;55.37;100760.25;4880937;29;20052;-85
2022/08/30 18:50:51;;;;;;;13.00;6.30;;;;;;;27.74;55.53;100747.28;4885273;29;20072;-86
2022/08/30 18:53:35;;;;;;;8.00;5.70;;;;;;;27.74;55.33;100740.91;4893539;29;20422;-85
2022/08/30 18:56:20;;;;;;;13.80;7.82;;;;;;;27.78;54.84;100736.06;4889508;29;20072;-86
2022/08/30 18:59:05;;;;;;;12.25;5.93;;;;;;;27.74;55.13;100752.88;4891023;29;20047;-87
2022/08/30 19:01:50;;;;;;;8.75;5.35;;;;;;;27.85;54.72;100761.03;4890689;29;20052;-87
2022/08/30 19:04:36;;;;;;;11.90;5.25;;;;;;;27.92;54.66;100772.88;4878894;29;20417;-81